Time,TemperatureF,DewpointF,PressureIn,WindDirection,WindDirectionDegrees,WindSpeedMPH,WindSpeedGustMPH,Humidity,HourlyPrecipIn,Conditions,Clouds,dailyrainin,SoftwareType,DateUTC
2013-08-04 00:02:00,71.9,72.0,29.91,West,262,0.0,-999.0,99,-99.99,,,1.23,weatherlink.com 1.10,2013-08-04 04:02:00,
2013-08-04 00:17:00,71.9,72.0,29.91,West,262,0.0,-999.0,99,-99.99,,,0.00,weatherlink.com 1.10,2013-08-04 04:17:00,
2013-08-04 00:32:00,72.0,72.0,29.91,West,262,0.0,-999.0,99,-99.99,,,0.00,weatherlink.com 1.10,2013-08-04 04:32:00,
2013-08-04 00:47:00,72.1,72.0,29.90,West,262,0.0,-999.0,99,-99.99,,,0.00,weatherlink.com 1.10,2013-08-04 04:47:00,
2013-08-04 01:02:00,72.1,72.0,29.89,West,262,0.0,-999.0,99,-99.99,,,0.00,weatherlink.com 1.10,2013-08-04 05:02:00,
2013-08-04 01:17:00,72.0,72.0,29.89,West,262,0.0,-999.0,99,-99.99,,,0.00,weatherlink.com 1.10,2013-08-04 05:17:00,
2013-08-04 01:32:00,71.8,72.0,29.89,West,262,0.0,-999.0,99,-99.99,,,0.00,weatherlink.com 1.10,2013-08-04 05:32:00,
2013-08-04 01:47:00,71.8,72.0,29.88,West,262,0.0,-999.0,99,-99.99,,,0.00,weatherlink.com 1.10,2013-08-04 05:47:00,
2013-08-04 02:02:00,71.7,71.0,29.88,West,262,0.0,-999.0,99,-99.99,,,0.00,weatherlink.com 1.10,2013-08-04 06:02:00,
2013-08-04 02:17:00,71.6,71.0,29.88,West,262,0.0,-999.0,99,-99.99,,,0.00,weatherlink.com 1.10,2013-08-04 06:17:00,
2013-08-04 02:32:00,71.7,71.0,29.87,West,262,0.0,-999.0,99,-99.99,,,0.00,weatherlink.com 1.10,2013-08-04 06:32:00,
2013-08-04 02:47:00,72.2,72.0,29.87,NW,313,0.0,-999.0,99,-99.99,,,0.00,weatherlink.com 1.10,2013-08-04 06:47:00,
2013-08-04 03:02:00,72.4,72.0,29.86,NW,313,0.0,-999.0,99,-99.99,,,0.00,weatherlink.com 1.10,2013-08-04 07:02:00,
2013-08-04 03:17:00,72.3,72.0,29.86,NW,313,0.0,-999.0,99,-99.99,,,0.00,weatherlink.com 1.10,2013-08-04 07:17:00,
2013-08-04 03:32:00,72.2,72.0,29.86,NW,313,0.0,-999.0,99,-99.99,,,0.00,weatherlink.com 1.10,2013-08-04 07:32:00,
2013-08-04 03:47:00,72.2,72.0,29.85,NW,313,0.0,-999.0,99,-99.99,,,0.00,weatherlink.com 1.10,2013-08-04 07:47:00,
2013-08-04 04:02:00,72.6,72.0,29.85,NW,314,0.0,-999.0,99,-99.99,,,0.00,weatherlink.com 1.10,2013-08-04 08:02:00,
2013-08-04 04:17:00,72.5,72.0,29.85,NW,314,0.0,-999.0,99,-99.99,,,0.00,weatherlink.com 1.10,2013-08-04 08:17:00,
2013-08-04 04:32:00,72.5,72.0,29.85,NW,314,0.0,-999.0,99,-99.99,,,0.00,weatherlink.com 1.10,2013-08-04 08:32:00,
2013-08-04 04:48:00,72.3,72.0,29.84,NW,314,0.0,-999.0,99,-99.99,,,0.00,weatherlink.com 1.10,2013-08-04 08:48:00,
2013-08-04 05:03:00,72.1,72.0,29.85,NW,314,0.0,-999.0,99,-99.99,,,0.00,weatherlink.com 1.10,2013-08-04 09:03:00,
2013-08-04 05:18:00,72.0,72.0,29.85,NW,314,0.0,-999.0,99,-99.99,,,0.00,weatherlink.com 1.10,2013-08-04 09:18:00,
2013-08-04 05:33:00,71.9,72.0,29.86,NW,314,0.0,-999.0,99,-99.99,,,0.00,weatherlink.com 1.10,2013-08-04 09:33:00,
2013-08-04 05:48:00,72.0,72.0,29.85,ESE,103,0.0,-999.0,99,-99.99,,,0.00,weatherlink.com 1.10,2013-08-04 09:48:00,
2013-08-04 06:03:00,72.1,72.0,29.86,ESE,103,0.0,-999.0,99,-99.99,,,0.00,weatherlink.com 1.10,2013-08-04 10:03:00,
2013-08-04 06:18:00,72.1,72.0,29.86,ESE,103,0.0,-999.0,99,-99.99,,,0.00,weatherlink.com 1.10,2013-08-04 10:18:00,
2013-08-04 06:33:00,71.9,72.0,29.87,ESE,103,0.0,-999.0,99,-99.99,,,0.00,weatherlink.com 1.10,2013-08-04 10:33:00,
2013-08-04 06:47:00,72.0,72.0,29.88,ESE,103,0.0,-999.0,99,-99.99,,,0.00,weatherlink.com 1.10,2013-08-04 10:47:00,
2013-08-04 07:03:00,72.3,72.0,29.89,SE,130,0.0,-999.0,99,-99.99,,,0.00,weatherlink.com 1.10,2013-08-04 11:03:00,
2013-08-04 07:18:00,72.6,73.0,29.89,ENE,71,0.0,-999.0,100,-99.99,,,0.00,weatherlink.com 1.10,2013-08-04 11:18:00,
2013-08-04 07:33:00,72.5,72.0,29.89,SE,127,0.0,-999.0,99,-99.99,,,0.00,weatherlink.com 1.10,2013-08-04 11:33:00,
2013-08-04 07:47:00,72.8,73.0,29.90,SE,127,0.0,-999.0,99,-99.99,,,0.00,weatherlink.com 1.10,2013-08-04 11:47:00,
2013-08-04 08:03:00,72.8,73.0,29.89,ESE,122,0.0,-999.0,99,-99.99,,,0.00,weatherlink.com 1.10,2013-08-04 12:03:00,
2013-08-04 08:17:00,73.0,72.0,29.89,WNW,296,0.0,-999.0,98,-99.99,,,0.00,weatherlink.com 1.10,2013-08-04 12:17:00,
2013-08-04 08:33:00,73.2,73.0,29.89,East,96,0.0,-999.0,98,-99.99,,,0.00,weatherlink.com 1.10,2013-08-04 12:33:00,
2013-08-04 08:48:00,73.3,72.0,29.90,East,98,1.0,-999.0,94,-99.99,,,0.00,weatherlink.com 1.10,2013-08-04 12:48:00,
2013-08-04 09:03:00,73.5,72.0,29.90,ESE,115,0.0,-999.0,94,-99.99,,,0.00,weatherlink.com 1.10,2013-08-04 13:03:00,
2013-08-04 09:18:00,73.7,72.0,29.90,West,275,0.0,-999.0,94,-99.99,,,0.00,weatherlink.com 1.10,2013-08-04 13:18:00,
2013-08-04 09:33:00,73.8,71.0,29.90,ENE,62,0.0,-999.0,90,-99.99,,,0.00,weatherlink.com 1.10,2013-08-04 13:33:00,
2013-08-04 09:48:00,74.2,71.0,29.91,East,91,0.0,-999.0,90,-99.99,,,0.00,weatherlink.com 1.10,2013-08-04 13:48:00,
2013-08-04 10:03:00,74.6,71.0,29.92,West,274,0.0,-999.0,88,-99.99,,,0.00,weatherlink.com 1.10,2013-08-04 14:03:00,
2013-08-04 10:18:00,74.5,70.0,29.93,West,279,0.0,-999.0,86,-99.99,,,0.00,weatherlink.com 1.10,2013-08-04 14:18:00,
2013-08-04 10:33:00,74.4,70.0,29.93,WNW,292,0.0,-999.0,85,-99.99,,,0.00,weatherlink.com 1.10,2013-08-04 14:33:00,
2013-08-04 10:48:00,74.8,70.0,29.93,East,88,0.0,-999.0,86,-99.99,,,0.00,weatherlink.com 1.10,2013-08-04 14:48:00,
2013-08-04 11:03:00,75.8,70.0,29.93,ENE,77,0.0,-999.0,82,-99.99,,,0.00,weatherlink.com 1.10,2013-08-04 15:03:00,
2013-08-04 11:18:00,76.3,69.0,29.93,East,95,0.0,-999.0,79,-99.99,,,0.00,weatherlink.com 1.10,2013-08-04 15:18:00,
2013-08-04 11:33:00,76.9,69.0,29.93,NNW,334,0.0,-999.0,76,-99.99,,,0.00,weatherlink.com 1.10,2013-08-04 15:33:00,
2013-08-04 11:48:00,77.2,67.0,29.93,NNE,33,0.0,-999.0,71,-99.99,,,0.00,weatherlink.com 1.10,2013-08-04 15:48:00,
2013-08-04 12:03:00,77.8,66.0,29.93,ESE,105,0.0,-999.0,68,-99.99,,,0.00,weatherlink.com 1.10,2013-08-04 16:03:00,
2013-08-04 12:18:00,78.5,65.0,29.93,ESE,103,0.0,-999.0,64,-99.99,,,0.00,weatherlink.com 1.10,2013-08-04 16:18:00,
2013-08-04 12:33:00,78.7,65.0,29.93,East,83,1.0,-999.0,62,-99.99,,,0.00,weatherlink.com 1.10,2013-08-04 16:33:00,
2013-08-04 12:48:00,79.0,65.0,29.93,SE,144,1.0,-999.0,63,-99.99,,,0.00,weatherlink.com 1.10,2013-08-04 16:48:00,
2013-08-04 13:03:00,79.6,64.0,29.93,East,80,2.0,-999.0,59,-99.99,,,0.00,weatherlink.com 1.10,2013-08-04 17:03:00,
2013-08-04 13:18:00,80.6,65.0,29.93,East,98,6.0,-999.0,59,-99.99,,,0.00,weatherlink.com 1.10,2013-08-04 17:18:00,
2013-08-04 13:33:00,81.6,64.0,29.93,NNW,343,2.0,-999.0,55,-99.99,,,0.00,weatherlink.com 1.10,2013-08-04 17:33:00,
2013-08-04 13:48:00,82.1,63.0,29.93,North,360,0.0,-999.0,52,-99.99,,,0.00,weatherlink.com 1.10,2013-08-04 17:48:00,
2013-08-04 14:03:00,83.0,65.0,29.93,NNE,33,1.0,-999.0,54,-99.99,,,0.00,weatherlink.com 1.10,2013-08-04 18:03:00,
2013-08-04 14:19:00,83.1,66.0,29.92,East,86,2.0,-999.0,56,-99.99,,,0.00,weatherlink.com 1.10,2013-08-04 18:19:00,
2013-08-04 14:34:00,83.0,63.0,29.92,SSW,197,0.0,-999.0,51,-99.99,,,0.00,weatherlink.com 1.10,2013-08-04 18:34:00,
2013-08-04 14:49:00,82.5,61.0,29.92,West,268,0.0,-999.0,49,-99.99,,,0.00,weatherlink.com 1.10,2013-08-04 18:49:00,
2013-08-04 15:04:00,82.0,64.0,29.92,ENE,71,0.0,-999.0,54,-99.99,,,0.00,weatherlink.com 1.10,2013-08-04 19:04:00,
2013-08-04 15:19:00,81.5,62.0,29.91,WSW,245,0.0,-999.0,51,-99.99,,,0.00,weatherlink.com 1.10,2013-08-04 19:19:00,
2013-08-04 15:34:00,81.1,62.0,29.91,East,81,0.0,-999.0,53,-99.99,,,0.01,weatherlink.com 1.10,2013-08-04 19:34:00,
2013-08-04 15:48:00,80.6,62.0,29.92,East,86,3.0,-999.0,54,-99.99,,,0.01,weatherlink.com 1.10,2013-08-04 19:48:00,
2013-08-04 16:04:00,79.9,63.0,29.92,NNW,335,0.0,-999.0,56,-99.99,,,0.01,weatherlink.com 1.10,2013-08-04 20:04:00,
2013-08-04 16:19:00,79.9,64.0,29.92,SE,130,0.0,-999.0,58,-99.99,,,0.01,weatherlink.com 1.10,2013-08-04 20:19:00,
2013-08-04 16:34:00,79.7,62.0,29.93,SSE,149,1.0,-999.0,54,-99.99,,,0.01,weatherlink.com 1.10,2013-08-04 20:34:00,
2013-08-04 16:49:00,80.2,63.0,29.93,NE,51,0.0,-999.0,57,-99.99,,,0.01,weatherlink.com 1.10,2013-08-04 20:49:00,
2013-08-04 17:04:00,80.4,64.0,29.93,North,9,1.0,-999.0,58,-99.99,,,0.01,weatherlink.com 1.10,2013-08-04 21:04:00,
2013-08-04 17:19:00,80.4,65.0,29.93,ENE,74,1.0,-999.0,59,-99.99,,,0.01,weatherlink.com 1.10,2013-08-04 21:19:00,
2013-08-04 17:34:00,80.4,64.0,29.93,ENE,78,0.0,-999.0,58,-99.99,,,0.01,weatherlink.com 1.10,2013-08-04 21:34:00,
2013-08-04 17:49:00,79.9,66.0,29.93,ESE,121,0.0,-999.0,62,-99.99,,,0.01,weatherlink.com 1.10,2013-08-04 21:49:00,
2013-08-04 18:03:00,79.1,64.0,29.93,NE,54,0.0,-999.0,60,-99.99,,,0.01,weatherlink.com 1.10,2013-08-04 22:03:00,
2013-08-04 18:19:00,78.7,66.0,29.94,ENE,62,0.0,-999.0,66,-99.99,,,0.01,weatherlink.com 1.10,2013-08-04 22:19:00,
2013-08-04 18:34:00,78.3,65.0,29.94,SE,139,0.0,-999.0,63,-99.99,,,0.01,weatherlink.com 1.10,2013-08-04 22:34:00,
2013-08-04 18:49:00,77.9,66.0,29.94,SE,139,0.0,-999.0,66,-99.99,,,0.01,weatherlink.com 1.10,2013-08-04 22:49:00,
2013-08-04 19:04:00,77.7,66.0,29.94,NW,315,0.0,-999.0,67,-99.99,,,0.01,weatherlink.com 1.10,2013-08-04 23:04:00,
2013-08-04 19:19:00,77.4,66.0,29.94,NE,37,0.0,-999.0,67,-99.99,,,0.01,weatherlink.com 1.10,2013-08-04 23:19:00,
2013-08-04 19:34:00,76.7,67.0,29.94,NE,38,0.0,-999.0,72,-99.99,,,0.01,weatherlink.com 1.10,2013-08-04 23:34:00,
2013-08-04 19:49:00,75.7,66.0,29.95,NE,38,0.0,-999.0,73,-99.99,,,0.01,weatherlink.com 1.10,2013-08-04 23:49:00,
2013-08-04 20:04:00,74.8,67.0,29.95,NE,38,0.0,-999.0,76,-99.99,,,0.01,weatherlink.com 1.10,2013-08-05 00:04:00,
2013-08-04 20:19:00,73.8,67.0,29.95,NE,38,0.0,-999.0,78,-99.99,,,0.01,weatherlink.com 1.10,2013-08-05 00:19:00,
2013-08-04 20:34:00,72.7,66.0,29.96,NE,38,0.0,-999.0,80,-99.99,,,0.01,weatherlink.com 1.10,2013-08-05 00:34:00,
2013-08-04 20:49:00,71.8,66.0,29.96,NE,38,0.0,-999.0,81,-99.99,,,0.01,weatherlink.com 1.10,2013-08-05 00:49:00,
2013-08-04 21:04:00,70.9,63.0,29.97,NE,38,0.0,-999.0,77,-99.99,,,0.01,weatherlink.com 1.10,2013-08-05 01:04:00,
2013-08-04 21:19:00,70.4,64.0,29.97,NE,38,0.0,-999.0,81,-99.99,,,0.01,weatherlink.com 1.10,2013-08-05 01:19:00,
2013-08-04 21:34:00,69.8,63.0,29.97,NE,38,0.0,-999.0,78,-99.99,,,0.01,weatherlink.com 1.10,2013-08-05 01:34:00,
2013-08-04 21:49:00,69.4,63.0,29.98,NE,38,0.0,-999.0,80,-99.99,,,0.01,weatherlink.com 1.10,2013-08-05 01:49:00,
2013-08-04 22:04:00,69.1,63.0,29.98,NE,38,0.0,-999.0,81,-99.99,,,0.01,weatherlink.com 1.10,2013-08-05 02:04:00,
2013-08-04 22:19:00,68.9,64.0,29.98,NE,38,0.0,-999.0,83,-99.99,,,0.01,weatherlink.com 1.10,2013-08-05 02:19:00,
2013-08-04 22:34:00,68.5,63.0,29.99,NE,38,0.0,-999.0,83,-99.99,,,0.01,weatherlink.com 1.10,2013-08-05 02:34:00,
2013-08-04 22:49:00,68.5,64.0,29.99,NE,38,0.0,-999.0,85,-99.99,,,0.01,weatherlink.com 1.10,2013-08-05 02:49:00,
2013-08-04 23:04:00,68.1,63.0,29.99,NE,38,0.0,-999.0,84,-99.99,,,0.01,weatherlink.com 1.10,2013-08-05 03:04:00,
2013-08-04 23:19:00,68.1,64.0,30.00,NE,38,0.0,-999.0,86,-99.99,,,0.01,weatherlink.com 1.10,2013-08-05 03:19:00,
2013-08-04 23:34:00,67.9,63.0,30.00,NE,38,0.0,-999.0,85,-99.99,,,0.01,weatherlink.com 1.10,2013-08-05 03:34:00,
2013-08-04 23:49:00,67.7,63.0,30.00,NE,38,0.0,-999.0,84,-99.99,,,0.01,weatherlink.com 1.10,2013-08-05 03:49:00,